sensor_id;sensor_type;location;lat;lon;timestamp;temperature;humidity
18191;DHT22;47004;51.366;12.348;2023-02-26T00:00:28;-0.50;99.90
18191;DHT22;47004;51.366;12.348;2023-02-26T00:02:30;-0.50;99.90
18191;DHT22;47004;51.366;12.348;2023-02-26T00:04:33;-0.50;99.90
18191;DHT22;47004;51.366;12.348;2023-02-26T00:06:38;-0.50;99.90
18191;DHT22;47004;51.366;12.348;2023-02-26T00:08:52;-0.50;99.90
18191;DHT22;47004;51.366;12.348;2023-02-26T00:10:54;-0.50;99.90
18191;DHT22;47004;51.366;12.348;2023-02-26T00:12:57;-0.50;99.90
18191;DHT22;47004;51.366;12.348;2023-02-26T00:14:59;-0.50;99.90
18191;DHT22;47004;51.366;12.348;2023-02-26T00:17:21;-0.50;99.90
18191;DHT22;47004;51.366;12.348;2023-02-26T00:19:25;-0.50;99.90
18191;DHT22;47004;51.366;12.348;2023-02-26T00:21:30;-0.50;99.90
18191;DHT22;47004;51.366;12.348;2023-02-26T00:23:32;-0.50;99.90
18191;DHT22;47004;51.366;12.348;2023-02-26T00:25:34;-0.50;99.90
18191;DHT22;47004;51.366;12.348;2023-02-26T00:27:37;-0.50;99.90
18191;DHT22;47004;51.366;12.348;2023-02-26T00:29:39;-0.50;99.90
18191;DHT22;47004;51.366;12.348;2023-02-26T00:31:41;-0.50;99.90
18191;DHT22;47004;51.366;12.348;2023-02-26T00:33:44;-0.50;99.90
18191;DHT22;47004;51.366;12.348;2023-02-26T00:35:46;-0.60;99.90
18191;DHT22;47004;51.366;12.348;2023-02-26T00:37:59;-0.50;99.90
18191;DHT22;47004;51.366;12.348;2023-02-26T00:40:12;-0.50;99.90
18191;DHT22;47004;51.366;12.348;2023-02-26T00:42:16;-0.50;99.90
18191;DHT22;47004;51.366;12.348;2023-02-26T00:44:19;-0.50;99.90
18191;DHT22;47004;51.366;12.348;2023-02-26T00:46:27;-0.50;99.90
18191;DHT22;47004;51.366;12.348;2023-02-26T00:48:42;-0.50;99.90
18191;DHT22;47004;51.366;12.348;2023-02-26T00:50:51;-0.50;99.90
18191;DHT22;47004;51.366;12.348;2023-02-26T00:53:02;-0.60;99.90
18191;DHT22;47004;51.366;12.348;2023-02-26T00:55:09;-0.50;99.90
18191;DHT22;47004;51.366;12.348;2023-02-26T00:57:11;-0.50;99.90
18191;DHT22;47004;51.366;12.348;2023-02-26T00:59:13;-0.50;99.90
18191;DHT22;47004;51.366;12.348;2023-02-26T01:01:15;-0.50;99.90
18191;DHT22;47004;51.366;12.348;2023-02-26T01:03:17;-0.50;99.90
18191;DHT22;47004;51.366;12.348;2023-02-26T01:05:20;-0.50;99.90
18191;DHT22;47004;51.366;12.348;2023-02-26T01:07:22;-0.50;99.90
18191;DHT22;47004;51.366;12.348;2023-02-26T01:09:28;-0.60;99.90
18191;DHT22;47004;51.366;12.348;2023-02-26T01:11:31;-0.60;99.90
18191;DHT22;47004;51.366;12.348;2023-02-26T01:13:34;-0.60;99.90
18191;DHT22;47004;51.366;12.348;2023-02-26T01:15:36;-0.50;99.90
18191;DHT22;47004;51.366;12.348;2023-02-26T01:17:44;-0.60;99.90
18191;DHT22;47004;51.366;12.348;2023-02-26T01:19:51;-0.50;99.90
18191;DHT22;47004;51.366;12.348;2023-02-26T01:21:59;-0.60;99.90
18191;DHT22;47004;51.366;12.348;2023-02-26T01:24:05;-0.60;99.90
18191;DHT22;47004;51.366;12.348;2023-02-26T01:26:15;-0.60;99.90
18191;DHT22;47004;51.366;12.348;2023-02-26T01:28:20;-0.50;99.90
18191;DHT22;47004;51.366;12.348;2023-02-26T01:30:23;-0.60;99.90
18191;DHT22;47004;51.366;12.348;2023-02-26T01:32:31;-0.60;99.90
18191;DHT22;47004;51.366;12.348;2023-02-26T01:34:41;-0.60;99.90
18191;DHT22;47004;51.366;12.348;2023-02-26T01:36:51;-0.60;99.90
18191;DHT22;47004;51.366;12.348;2023-02-26T01:39:04;-0.60;99.90
18191;DHT22;47004;51.366;12.348;2023-02-26T01:41:15;-0.60;99.90
18191;DHT22;47004;51.366;12.348;2023-02-26T01:43:25;-0.60;99.90
18191;DHT22;47004;51.366;12.348;2023-02-26T01:45:32;-0.50;99.90
18191;DHT22;47004;51.366;12.348;2023-02-26T01:47:39;-0.60;99.90
18191;DHT22;47004;51.366;12.348;2023-02-26T01:49:44;-0.60;99.90
18191;DHT22;47004;51.366;12.348;2023-02-26T01:51:49;-0.60;99.90
18191;DHT22;47004;51.366;12.348;2023-02-26T01:53:50;-0.60;99.90
18191;DHT22;47004;51.366;12.348;2023-02-26T01:55:55;-0.60;99.90
18191;DHT22;47004;51.366;12.348;2023-02-26T01:58:00;-0.60;99.90
18191;DHT22;47004;51.366;12.348;2023-02-26T02:00:04;-0.60;99.90
18191;DHT22;47004;51.366;12.348;2023-02-26T02:02:08;-0.60;99.90
18191;DHT22;47004;51.366;12.348;2023-02-26T02:04:13;-0.60;99.90
18191;DHT22;47004;51.366;12.348;2023-02-26T02:06:17;-0.60;99.90
18191;DHT22;47004;51.366;12.348;2023-02-26T02:08:21;-0.60;99.90
18191;DHT22;47004;51.366;12.348;2023-02-26T02:10:23;-0.60;99.90
18191;DHT22;47004;51.366;12.348;2023-02-26T02:12:34;-0.60;99.90
18191;DHT22;47004;51.366;12.348;2023-02-26T02:14:49;-0.60;99.90
18191;DHT22;47004;51.366;12.348;2023-02-26T02:17:00;-0.60;99.90
18191;DHT22;47004;51.366;12.348;2023-02-26T02:19:16;-0.60;99.90
18191;DHT22;47004;51.366;12.348;2023-02-26T02:21:42;-0.60;99.90
18191;DHT22;47004;51.366;12.348;2023-02-26T02:23:53;-0.60;99.90
18191;DHT22;47004;51.366;12.348;2023-02-26T02:29:08;-0.60;99.90
18191;DHT22;47004;51.366;12.348;2023-02-26T02:31:22;-0.60;99.90
18191;DHT22;47004;51.366;12.348;2023-02-26T02:33:29;-0.60;99.90
18191;DHT22;47004;51.366;12.348;2023-02-26T02:35:37;-0.50;99.90
18191;DHT22;47004;51.366;12.348;2023-02-26T02:37:42;-0.60;99.90
18191;DHT22;47004;51.366;12.348;2023-02-26T02:39:49;-0.60;99.90
18191;DHT22;47004;51.366;12.348;2023-02-26T02:41:54;-0.60;99.90
18191;DHT22;47004;51.366;12.348;2023-02-26T02:44:00;-0.60;99.90
18191;DHT22;47004;51.366;12.348;2023-02-26T02:46:05;-0.60;99.90
18191;DHT22;47004;51.366;12.348;2023-02-26T02:48:12;-0.60;99.90
18191;DHT22;47004;51.366;12.348;2023-02-26T02:50:20;-0.60;99.90
18191;DHT22;47004;51.366;12.348;2023-02-26T02:52:27;-0.60;99.90
18191;DHT22;47004;51.366;12.348;2023-02-26T02:54:34;-0.60;99.90
18191;DHT22;47004;51.366;12.348;2023-02-26T02:56:42;-0.50;99.90
18191;DHT22;47004;51.366;12.348;2023-02-26T02:58:50;-0.70;99.90
18191;DHT22;47004;51.366;12.348;2023-02-26T03:00:59;-0.70;99.90
18191;DHT22;47004;51.366;12.348;2023-02-26T03:03:07;-0.70;99.90
18191;DHT22;47004;51.366;12.348;2023-02-26T03:05:12;-0.70;99.90
18191;DHT22;47004;51.366;12.348;2023-02-26T03:07:14;-0.70;99.90
18191;DHT22;47004;51.366;12.348;2023-02-26T03:09:17;-0.70;99.90
18191;DHT22;47004;51.366;12.348;2023-02-26T03:11:19;-0.70;99.90
18191;DHT22;47004;51.366;12.348;2023-02-26T03:13:23;-0.70;99.90
18191;DHT22;47004;51.366;12.348;2023-02-26T03:15:34;-0.80;99.90
18191;DHT22;47004;51.366;12.348;2023-02-26T03:17:42;-0.80;99.90
18191;DHT22;47004;51.366;12.348;2023-02-26T03:19:58;-0.80;99.90
18191;DHT22;47004;51.366;12.348;2023-02-26T03:22:09;-0.80;99.90
18191;DHT22;47004;51.366;12.348;2023-02-26T03:24:17;-0.80;99.90
18191;DHT22;47004;51.366;12.348;2023-02-26T03:26:25;-0.80;99.90
18191;DHT22;47004;51.366;12.348;2023-02-26T03:28:34;-0.80;99.90
18191;DHT22;47004;51.366;12.348;2023-02-26T03:30:42;-0.80;99.90
18191;DHT22;47004;51.366;12.348;2023-02-26T03:32:52;-0.80;99.90
18191;DHT22;47004;51.366;12.348;2023-02-26T03:35:02;-0.80;99.90
18191;DHT22;47004;51.366;12.348;2023-02-26T03:37:07;-0.80;99.90
18191;DHT22;47004;51.366;12.348;2023-02-26T03:39:15;-0.80;99.90
18191;DHT22;47004;51.366;12.348;2023-02-26T03:41:23;-0.80;99.90
18191;DHT22;47004;51.366;12.348;2023-02-26T03:43:29;-0.80;99.90
18191;DHT22;47004;51.366;12.348;2023-02-26T03:45:36;-0.80;99.90
18191;DHT22;47004;51.366;12.348;2023-02-26T03:47:40;-0.90;99.90
18191;DHT22;47004;51.366;12.348;2023-02-26T03:49:45;-0.80;99.90
18191;DHT22;47004;51.366;12.348;2023-02-26T03:51:48;-0.80;99.90
18191;DHT22;47004;51.366;12.348;2023-02-26T03:53:55;-0.90;99.90
18191;DHT22;47004;51.366;12.348;2023-02-26T03:56:03;-0.90;99.90
18191;DHT22;47004;51.366;12.348;2023-02-26T03:58:06;-0.90;99.90
18191;DHT22;47004;51.366;12.348;2023-02-26T04:00:10;-0.90;99.90
18191;DHT22;47004;51.366;12.348;2023-02-26T04:02:16;-0.90;99.90
18191;DHT22;47004;51.366;12.348;2023-02-26T04:04:24;-0.90;99.90
18191;DHT22;47004;51.366;12.348;2023-02-26T04:06:27;-0.90;99.90
18191;DHT22;47004;51.366;12.348;2023-02-26T04:08:30;-0.90;99.90
18191;DHT22;47004;51.366;12.348;2023-02-26T04:10:39;-0.90;99.90
18191;DHT22;47004;51.366;12.348;2023-02-26T04:12:42;-0.90;99.90
18191;DHT22;47004;51.366;12.348;2023-02-26T04:14:44;-0.90;99.90
18191;DHT22;47004;51.366;12.348;2023-02-26T04:16:45;-1.00;99.90
18191;DHT22;47004;51.366;12.348;2023-02-26T04:18:47;-0.90;99.90
18191;DHT22;47004;51.366;12.348;2023-02-26T04:20:49;-1.00;99.90
18191;DHT22;47004;51.366;12.348;2023-02-26T04:22:51;-0.90;99.90
18191;DHT22;47004;51.366;12.348;2023-02-26T04:24:53;-1.00;99.90
18191;DHT22;47004;51.366;12.348;2023-02-26T04:26:56;-1.00;99.90
18191;DHT22;47004;51.366;12.348;2023-02-26T04:28:58;-1.00;99.90
18191;DHT22;47004;51.366;12.348;2023-02-26T04:31:00;-1.00;99.90
18191;DHT22;47004;51.366;12.348;2023-02-26T04:33:02;-1.00;99.90
18191;DHT22;47004;51.366;12.348;2023-02-26T04:35:04;-0.80;99.90
18191;DHT22;47004;51.366;12.348;2023-02-26T04:37:06;-1.00;99.90
18191;DHT22;47004;51.366;12.348;2023-02-26T04:39:08;-1.00;99.90
18191;DHT22;47004;51.366;12.348;2023-02-26T04:41:10;-1.00;99.90
18191;DHT22;47004;51.366;12.348;2023-02-26T04:43:13;-1.00;99.90
18191;DHT22;47004;51.366;12.348;2023-02-26T04:45:15;-1.00;99.90
18191;DHT22;47004;51.366;12.348;2023-02-26T04:47:17;-1.00;99.90
18191;DHT22;47004;51.366;12.348;2023-02-26T04:49:19;-1.00;99.90
18191;DHT22;47004;51.366;12.348;2023-02-26T04:51:21;-1.00;99.90
18191;DHT22;47004;51.366;12.348;2023-02-26T04:53:23;-1.00;99.90
18191;DHT22;47004;51.366;12.348;2023-02-26T04:55:25;-1.00;99.90
18191;DHT22;47004;51.366;12.348;2023-02-26T04:57:27;-1.00;99.90
18191;DHT22;47004;51.366;12.348;2023-02-26T04:59:30;-0.90;99.90
18191;DHT22;47004;51.366;12.348;2023-02-26T05:01:32;-0.90;99.90
18191;DHT22;47004;51.366;12.348;2023-02-26T05:03:34;-0.90;99.90
18191;DHT22;47004;51.366;12.348;2023-02-26T05:05:36;-0.90;99.90
18191;DHT22;47004;51.366;12.348;2023-02-26T05:07:38;-0.90;99.90
18191;DHT22;47004;51.366;12.348;2023-02-26T05:09:40;-0.90;99.90
18191;DHT22;47004;51.366;12.348;2023-02-26T05:11:41;-0.90;99.90
18191;DHT22;47004;51.366;12.348;2023-02-26T05:13:43;-0.90;99.90
18191;DHT22;47004;51.366;12.348;2023-02-26T05:15:47;-0.90;99.90
18191;DHT22;47004;51.366;12.348;2023-02-26T05:17:49;-0.90;99.90
18191;DHT22;47004;51.366;12.348;2023-02-26T05:19:51;-0.90;99.90
18191;DHT22;47004;51.366;12.348;2023-02-26T05:21:52;-0.90;99.90
18191;DHT22;47004;51.366;12.348;2023-02-26T05:23:54;-0.90;99.90
18191;DHT22;47004;51.366;12.348;2023-02-26T05:25:57;-0.90;99.90
18191;DHT22;47004;51.366;12.348;2023-02-26T05:27:59;-0.90;99.90
18191;DHT22;47004;51.366;12.348;2023-02-26T05:30:01;-1.00;99.90
18191;DHT22;47004;51.366;12.348;2023-02-26T05:32:05;-0.90;99.90
18191;DHT22;47004;51.366;12.348;2023-02-26T05:34:07;-0.90;99.90
18191;DHT22;47004;51.366;12.348;2023-02-26T05:36:09;-1.00;99.90
18191;DHT22;47004;51.366;12.348;2023-02-26T05:38:14;-1.00;99.90
18191;DHT22;47004;51.366;12.348;2023-02-26T05:40:16;-1.00;99.90
18191;DHT22;47004;51.366;12.348;2023-02-26T05:42:18;-1.00;99.90
18191;DHT22;47004;51.366;12.348;2023-02-26T05:44:20;-1.00;99.90
18191;DHT22;47004;51.366;12.348;2023-02-26T05:46:22;-0.90;99.90
18191;DHT22;47004;51.366;12.348;2023-02-26T05:48:25;-1.00;99.90
18191;DHT22;47004;51.366;12.348;2023-02-26T05:50:27;-1.00;99.90
18191;DHT22;47004;51.366;12.348;2023-02-26T05:52:30;-1.00;99.90
18191;DHT22;47004;51.366;12.348;2023-02-26T05:54:32;-1.00;99.90
18191;DHT22;47004;51.366;12.348;2023-02-26T05:56:33;-1.00;99.90
18191;DHT22;47004;51.366;12.348;2023-02-26T05:58:35;-1.00;99.90
18191;DHT22;47004;51.366;12.348;2023-02-26T06:00:38;-1.00;99.90
18191;DHT22;47004;51.366;12.348;2023-02-26T06:02:40;-1.00;99.90
18191;DHT22;47004;51.366;12.348;2023-02-26T06:04:43;-1.00;99.90
18191;DHT22;47004;51.366;12.348;2023-02-26T06:06:45;-1.00;99.90
18191;DHT22;47004;51.366;12.348;2023-02-26T06:08:47;-1.00;99.90
18191;DHT22;47004;51.366;12.348;2023-02-26T06:10:49;-1.00;99.90
18191;DHT22;47004;51.366;12.348;2023-02-26T06:12:51;-0.90;99.90
18191;DHT22;47004;51.366;12.348;2023-02-26T06:14:53;-0.90;99.90
18191;DHT22;47004;51.366;12.348;2023-02-26T06:16:55;-0.90;99.90
18191;DHT22;47004;51.366;12.348;2023-02-26T06:18:57;-0.90;99.90
18191;DHT22;47004;51.366;12.348;2023-02-26T06:21:01;-0.90;99.90
18191;DHT22;47004;51.366;12.348;2023-02-26T06:23:03;-1.00;99.90
18191;DHT22;47004;51.366;12.348;2023-02-26T06:25:05;-1.00;99.90
18191;DHT22;47004;51.366;12.348;2023-02-26T06:27:07;-0.90;99.90
18191;DHT22;47004;51.366;12.348;2023-02-26T06:29:09;-0.90;99.90
18191;DHT22;47004;51.366;12.348;2023-02-26T06:31:11;-0.90;99.90
18191;DHT22;47004;51.366;12.348;2023-02-26T06:33:13;-0.90;99.90
18191;DHT22;47004;51.366;12.348;2023-02-26T06:35:15;-0.90;99.90
18191;DHT22;47004;51.366;12.348;2023-02-26T06:37:18;-0.90;99.90
18191;DHT22;47004;51.366;12.348;2023-02-26T06:39:20;-0.80;99.90
18191;DHT22;47004;51.366;12.348;2023-02-26T06:41:22;-0.80;99.90
18191;DHT22;47004;51.366;12.348;2023-02-26T06:43:24;-0.80;99.90
18191;DHT22;47004;51.366;12.348;2023-02-26T06:45:26;-0.80;99.90
18191;DHT22;47004;51.366;12.348;2023-02-26T06:47:28;-0.80;99.90
18191;DHT22;47004;51.366;12.348;2023-02-26T06:49:30;-0.80;99.90
18191;DHT22;47004;51.366;12.348;2023-02-26T06:51:32;-0.80;99.90
18191;DHT22;47004;51.366;12.348;2023-02-26T06:53:35;-0.70;99.90
18191;DHT22;47004;51.366;12.348;2023-02-26T06:55:42;-0.80;99.90
18191;DHT22;47004;51.366;12.348;2023-02-26T06:57:44;-0.80;99.90
18191;DHT22;47004;51.366;12.348;2023-02-26T06:59:46;-0.70;99.90
18191;DHT22;47004;51.366;12.348;2023-02-26T07:01:49;-0.70;99.90
18191;DHT22;47004;51.366;12.348;2023-02-26T07:03:51;-0.70;99.90
18191;DHT22;47004;51.366;12.348;2023-02-26T07:05:53;-0.70;99.90
18191;DHT22;47004;51.366;12.348;2023-02-26T07:07:55;-0.70;99.90
18191;DHT22;47004;51.366;12.348;2023-02-26T07:09:59;-0.70;99.90
18191;DHT22;47004;51.366;12.348;2023-02-26T07:12:01;-0.70;99.90
18191;DHT22;47004;51.366;12.348;2023-02-26T07:14:02;-0.70;99.90
18191;DHT22;47004;51.366;12.348;2023-02-26T07:16:05;-0.40;99.90
18191;DHT22;47004;51.366;12.348;2023-02-26T07:18:07;-0.60;99.90
18191;DHT22;47004;51.366;12.348;2023-02-26T07:20:10;-0.60;99.90
18191;DHT22;47004;51.366;12.348;2023-02-26T07:22:14;-0.60;99.90
18191;DHT22;47004;51.366;12.348;2023-02-26T07:24:16;-0.60;99.90
18191;DHT22;47004;51.366;12.348;2023-02-26T07:26:19;-0.60;99.90
18191;DHT22;47004;51.366;12.348;2023-02-26T07:28:21;-0.50;99.90
18191;DHT22;47004;51.366;12.348;2023-02-26T07:30:23;-0.50;99.90
18191;DHT22;47004;51.366;12.348;2023-02-26T07:32:25;-0.50;99.90
18191;DHT22;47004;51.366;12.348;2023-02-26T07:34:27;-0.50;99.90
18191;DHT22;47004;51.366;12.348;2023-02-26T07:36:29;-0.50;99.90
18191;DHT22;47004;51.366;12.348;2023-02-26T07:38:31;-0.40;99.90
18191;DHT22;47004;51.366;12.348;2023-02-26T07:40:33;-0.50;99.90
18191;DHT22;47004;51.366;12.348;2023-02-26T07:42:36;-0.50;99.90
18191;DHT22;47004;51.366;12.348;2023-02-26T07:44:38;-0.50;99.90
18191;DHT22;47004;51.366;12.348;2023-02-26T07:46:40;-0.40;99.90
18191;DHT22;47004;51.366;12.348;2023-02-26T07:48:42;-0.50;99.90
18191;DHT22;47004;51.366;12.348;2023-02-26T07:50:44;-0.50;99.90
18191;DHT22;47004;51.366;12.348;2023-02-26T07:52:46;-0.40;99.90
18191;DHT22;47004;51.366;12.348;2023-02-26T07:54:48;-0.40;99.90
18191;DHT22;47004;51.366;12.348;2023-02-26T07:56:50;-0.40;99.90
18191;DHT22;47004;51.366;12.348;2023-02-26T07:58:53;-0.30;99.90
18191;DHT22;47004;51.366;12.348;2023-02-26T08:00:57;-0.30;99.90
18191;DHT22;47004;51.366;12.348;2023-02-26T08:02:59;-0.30;99.90
18191;DHT22;47004;51.366;12.348;2023-02-26T08:05:01;-0.30;99.90
18191;DHT22;47004;51.366;12.348;2023-02-26T08:07:03;-0.30;99.90
18191;DHT22;47004;51.366;12.348;2023-02-26T08:09:05;-0.30;99.90
18191;DHT22;47004;51.366;12.348;2023-02-26T08:11:07;-0.30;99.90
18191;DHT22;47004;51.366;12.348;2023-02-26T08:13:09;-0.20;99.90
18191;DHT22;47004;51.366;12.348;2023-02-26T08:15:12;-0.20;99.90
18191;DHT22;47004;51.366;12.348;2023-02-26T08:17:14;-0.20;99.90
18191;DHT22;47004;51.366;12.348;2023-02-26T08:19:16;-0.20;99.90
18191;DHT22;47004;51.366;12.348;2023-02-26T08:21:18;-0.20;99.90
18191;DHT22;47004;51.366;12.348;2023-02-26T08:23:20;-0.10;99.90
18191;DHT22;47004;51.366;12.348;2023-02-26T08:25:22;-0.10;99.90
18191;DHT22;47004;51.366;12.348;2023-02-26T08:27:24;-0.10;99.90
18191;DHT22;47004;51.366;12.348;2023-02-26T08:29:26;-0.10;99.90
18191;DHT22;47004;51.366;12.348;2023-02-26T08:31:30;-0.10;99.90
18191;DHT22;47004;51.366;12.348;2023-02-26T08:33:33;-0.10;99.90
18191;DHT22;47004;51.366;12.348;2023-02-26T08:35:35;-0.10;99.90
18191;DHT22;47004;51.366;12.348;2023-02-26T08:37:37;-0.10;99.90
18191;DHT22;47004;51.366;12.348;2023-02-26T08:39:40;-0.10;99.90
18191;DHT22;47004;51.366;12.348;2023-02-26T08:41:41;-0.10;99.90
18191;DHT22;47004;51.366;12.348;2023-02-26T08:43:43;-0.10;99.90
18191;DHT22;47004;51.366;12.348;2023-02-26T08:45:45;0.00;99.90
18191;DHT22;47004;51.366;12.348;2023-02-26T08:47:49;0.00;99.90
18191;DHT22;47004;51.366;12.348;2023-02-26T08:49:52;0.00;99.90
18191;DHT22;47004;51.366;12.348;2023-02-26T08:51:54;0.00;99.90
18191;DHT22;47004;51.366;12.348;2023-02-26T08:53:56;0.00;99.90
18191;DHT22;47004;51.366;12.348;2023-02-26T08:55:58;0.00;99.90
18191;DHT22;47004;51.366;12.348;2023-02-26T08:58:00;0.00;99.90
18191;DHT22;47004;51.366;12.348;2023-02-26T09:00:02;0.00;99.90
18191;DHT22;47004;51.366;12.348;2023-02-26T09:02:10;0.00;99.90
18191;DHT22;47004;51.366;12.348;2023-02-26T09:04:13;0.00;99.90
18191;DHT22;47004;51.366;12.348;2023-02-26T09:06:15;0.00;99.90
18191;DHT22;47004;51.366;12.348;2023-02-26T09:08:17;0.10;99.90
18191;DHT22;47004;51.366;12.348;2023-02-26T09:10:20;0.00;99.90
18191;DHT22;47004;51.366;12.348;2023-02-26T09:12:22;0.00;99.90
18191;DHT22;47004;51.366;12.348;2023-02-26T09:14:24;0.10;99.90
18191;DHT22;47004;51.366;12.348;2023-02-26T09:16:26;0.00;99.90
18191;DHT22;47004;51.366;12.348;2023-02-26T09:18:28;0.10;99.90
18191;DHT22;47004;51.366;12.348;2023-02-26T09:20:32;0.00;99.90
18191;DHT22;47004;51.366;12.348;2023-02-26T09:22:33;0.10;99.90
18191;DHT22;47004;51.366;12.348;2023-02-26T09:24:36;0.10;99.90
18191;DHT22;47004;51.366;12.348;2023-02-26T09:26:37;0.00;99.90
18191;DHT22;47004;51.366;12.348;2023-02-26T09:28:40;0.10;99.90
18191;DHT22;47004;51.366;12.348;2023-02-26T09:30:41;0.10;99.90
18191;DHT22;47004;51.366;12.348;2023-02-26T09:32:43;0.20;99.90
18191;DHT22;47004;51.366;12.348;2023-02-26T09:34:45;0.20;99.90
18191;DHT22;47004;51.366;12.348;2023-02-26T09:36:48;0.20;99.90
18191;DHT22;47004;51.366;12.348;2023-02-26T09:38:50;0.20;99.90
18191;DHT22;47004;51.366;12.348;2023-02-26T09:40:55;0.20;99.90
18191;DHT22;47004;51.366;12.348;2023-02-26T09:43:07;0.20;99.90
18191;DHT22;47004;51.366;12.348;2023-02-26T09:45:20;0.20;99.90
18191;DHT22;47004;51.366;12.348;2023-02-26T09:47:26;0.30;99.90
18191;DHT22;47004;51.366;12.348;2023-02-26T09:49:38;0.30;99.90
18191;DHT22;47004;51.366;12.348;2023-02-26T09:51:44;0.30;99.90
18191;DHT22;47004;51.366;12.348;2023-02-26T09:53:48;0.30;99.90
18191;DHT22;47004;51.366;12.348;2023-02-26T09:55:55;0.30;99.90
18191;DHT22;47004;51.366;12.348;2023-02-26T09:57:59;0.40;99.90
18191;DHT22;47004;51.366;12.348;2023-02-26T10:00:13;0.30;99.90
18191;DHT22;47004;51.366;12.348;2023-02-26T10:02:23;0.50;99.90
18191;DHT22;47004;51.366;12.348;2023-02-26T10:04:48;0.40;99.90
18191;DHT22;47004;51.366;12.348;2023-02-26T10:07:02;0.40;99.90
18191;DHT22;47004;51.366;12.348;2023-02-26T10:09:18;0.50;99.90
18191;DHT22;47004;51.366;12.348;2023-02-26T10:11:26;0.50;99.90
18191;DHT22;47004;51.366;12.348;2023-02-26T10:13:34;0.50;99.90
18191;DHT22;47004;51.366;12.348;2023-02-26T10:15:40;0.60;99.90
18191;DHT22;47004;51.366;12.348;2023-02-26T10:17:56;0.60;99.90
18191;DHT22;47004;51.366;12.348;2023-02-26T10:20:02;0.60;99.90
18191;DHT22;47004;51.366;12.348;2023-02-26T10:22:13;0.60;99.90
18191;DHT22;47004;51.366;12.348;2023-02-26T10:24:21;0.60;99.90
18191;DHT22;47004;51.366;12.348;2023-02-26T10:26:27;0.70;99.90
18191;DHT22;47004;51.366;12.348;2023-02-26T10:28:40;0.70;99.90
18191;DHT22;47004;51.366;12.348;2023-02-26T10:30:47;0.70;99.90
18191;DHT22;47004;51.366;12.348;2023-02-26T10:32:58;0.80;99.90
18191;DHT22;47004;51.366;12.348;2023-02-26T10:35:04;0.80;99.90
18191;DHT22;47004;51.366;12.348;2023-02-26T10:37:15;0.80;99.90
18191;DHT22;47004;51.366;12.348;2023-02-26T10:39:28;0.90;99.90
18191;DHT22;47004;51.366;12.348;2023-02-26T10:41:33;0.90;99.90
18191;DHT22;47004;51.366;12.348;2023-02-26T10:43:38;0.90;99.90
18191;DHT22;47004;51.366;12.348;2023-02-26T10:45:49;0.90;99.90
18191;DHT22;47004;51.366;12.348;2023-02-26T10:48:06;0.90;99.90
18191;DHT22;47004;51.366;12.348;2023-02-26T10:50:11;1.00;99.90
18191;DHT22;47004;51.366;12.348;2023-02-26T10:52:18;1.00;99.90
18191;DHT22;47004;51.366;12.348;2023-02-26T10:54:26;1.00;99.90
18191;DHT22;47004;51.366;12.348;2023-02-26T10:56:32;1.00;99.90
18191;DHT22;47004;51.366;12.348;2023-02-26T10:58:34;1.10;99.90
18191;DHT22;47004;51.366;12.348;2023-02-26T11:00:36;1.10;99.90
18191;DHT22;47004;51.366;12.348;2023-02-26T11:02:41;1.10;99.90
18191;DHT22;47004;51.366;12.348;2023-02-26T11:04:44;1.20;99.90
18191;DHT22;47004;51.366;12.348;2023-02-26T11:06:49;1.30;99.90
18191;DHT22;47004;51.366;12.348;2023-02-26T11:08:54;1.30;99.90
18191;DHT22;47004;51.366;12.348;2023-02-26T11:11:00;1.40;99.90
18191;DHT22;47004;51.366;12.348;2023-02-26T11:13:02;1.50;99.90
18191;DHT22;47004;51.366;12.348;2023-02-26T11:15:05;1.60;99.90
18191;DHT22;47004;51.366;12.348;2023-02-26T11:17:11;1.70;99.90
18191;DHT22;47004;51.366;12.348;2023-02-26T11:19:15;1.80;99.90
18191;DHT22;47004;51.366;12.348;2023-02-26T11:21:20;1.90;99.90
18191;DHT22;47004;51.366;12.348;2023-02-26T11:23:25;2.00;99.90
18191;DHT22;47004;51.366;12.348;2023-02-26T11:25:31;2.10;99.90
18191;DHT22;47004;51.366;12.348;2023-02-26T11:27:36;2.10;99.90
18191;DHT22;47004;51.366;12.348;2023-02-26T11:29:41;2.20;99.90
18191;DHT22;47004;51.366;12.348;2023-02-26T11:31:47;2.10;99.90
18191;DHT22;47004;51.366;12.348;2023-02-26T11:33:50;2.10;99.90
18191;DHT22;47004;51.366;12.348;2023-02-26T11:35:57;2.10;99.90
18191;DHT22;47004;51.366;12.348;2023-02-26T11:38:01;2.10;99.90
18191;DHT22;47004;51.366;12.348;2023-02-26T11:40:06;2.10;99.90
18191;DHT22;47004;51.366;12.348;2023-02-26T11:42:13;2.10;99.90
18191;DHT22;47004;51.366;12.348;2023-02-26T11:44:25;2.00;99.90
18191;DHT22;47004;51.366;12.348;2023-02-26T11:46:29;2.00;99.90
18191;DHT22;47004;51.366;12.348;2023-02-26T11:48:40;2.00;99.90
18191;DHT22;47004;51.366;12.348;2023-02-26T11:50:46;2.00;99.90
18191;DHT22;47004;51.366;12.348;2023-02-26T11:52:55;2.10;99.90
18191;DHT22;47004;51.366;12.348;2023-02-26T11:55:00;2.10;99.90
18191;DHT22;47004;51.366;12.348;2023-02-26T11:57:05;2.10;99.90
18191;DHT22;47004;51.366;12.348;2023-02-26T11:59:17;2.20;99.90
18191;DHT22;47004;51.366;12.348;2023-02-26T12:01:20;2.30;99.90
18191;DHT22;47004;51.366;12.348;2023-02-26T12:03:33;2.40;99.90
18191;DHT22;47004;51.366;12.348;2023-02-26T12:05:35;2.40;99.90
18191;DHT22;47004;51.366;12.348;2023-02-26T12:07:37;2.40;99.90
18191;DHT22;47004;51.366;12.348;2023-02-26T12:09:39;2.50;99.90
18191;DHT22;47004;51.366;12.348;2023-02-26T12:12:02;2.60;99.90
18191;DHT22;47004;51.366;12.348;2023-02-26T12:14:28;2.70;99.90
18191;DHT22;47004;51.366;12.348;2023-02-26T12:16:41;2.80;99.90
18191;DHT22;47004;51.366;12.348;2023-02-26T12:18:55;3.00;99.90
18191;DHT22;47004;51.366;12.348;2023-02-26T12:21:14;3.20;99.90
18191;DHT22;47004;51.366;12.348;2023-02-26T12:23:44;3.30;99.90
18191;DHT22;47004;51.366;12.348;2023-02-26T12:26:07;3.50;99.90
18191;DHT22;47004;51.366;12.348;2023-02-26T12:28:47;3.60;99.90
18191;DHT22;47004;51.366;12.348;2023-02-26T12:31:01;3.50;99.90
18191;DHT22;47004;51.366;12.348;2023-02-26T12:33:15;3.50;99.90
18191;DHT22;47004;51.366;12.348;2023-02-26T12:35:41;3.40;99.90
18191;DHT22;47004;51.366;12.348;2023-02-26T12:37:54;3.30;99.90
18191;DHT22;47004;51.366;12.348;2023-02-26T12:40:07;3.30;99.90
18191;DHT22;47004;51.366;12.348;2023-02-26T12:42:21;3.30;99.90
18191;DHT22;47004;51.366;12.348;2023-02-26T12:44:38;3.20;99.90
18191;DHT22;47004;51.366;12.348;2023-02-26T12:46:57;3.20;99.90
18191;DHT22;47004;51.366;12.348;2023-02-26T12:49:16;3.40;99.90
18191;DHT22;47004;51.366;12.348;2023-02-26T12:51:32;3.50;99.90
18191;DHT22;47004;51.366;12.348;2023-02-26T12:53:48;3.60;99.90
18191;DHT22;47004;51.366;12.348;2023-02-26T12:56:03;3.70;99.90
18191;DHT22;47004;51.366;12.348;2023-02-26T12:58:43;3.70;99.90
18191;DHT22;47004;51.366;12.348;2023-02-26T13:01:02;3.80;99.90
18191;DHT22;47004;51.366;12.348;2023-02-26T13:06:10;3.60;99.90
18191;DHT22;47004;51.366;12.348;2023-02-26T13:08:22;3.60;99.90
18191;DHT22;47004;51.366;12.348;2023-02-26T13:10:33;3.60;99.90